sensor_id;sensor_type;location;lat;lon;timestamp;temperature;humidity
13296;DHT22;6716;51.086;-0.302;2022-10-31T00:02:11;11.00;99.90
13296;DHT22;6716;51.086;-0.302;2022-10-31T00:04:37;11.00;99.90
13296;DHT22;6716;51.086;-0.302;2022-10-31T00:07:03;11.00;99.90
13296;DHT22;6716;51.086;-0.302;2022-10-31T00:09:29;11.00;99.90
13296;DHT22;6716;51.086;-0.302;2022-10-31T00:11:55;11.00;99.90
13296;DHT22;6716;51.086;-0.302;2022-10-31T00:14:21;11.00;99.90
13296;DHT22;6716;51.086;-0.302;2022-10-31T00:16:47;10.90;99.90
13296;DHT22;6716;51.086;-0.302;2022-10-31T00:19:12;10.90;99.90
13296;DHT22;6716;51.086;-0.302;2022-10-31T00:21:38;10.90;99.90
13296;DHT22;6716;51.086;-0.302;2022-10-31T00:24:04;10.90;99.90
13296;DHT22;6716;51.086;-0.302;2022-10-31T00:26:31;10.90;99.90
13296;DHT22;6716;51.086;-0.302;2022-10-31T00:29:00;10.90;99.90
13296;DHT22;6716;51.086;-0.302;2022-10-31T00:31:26;10.90;99.90
13296;DHT22;6716;51.086;-0.302;2022-10-31T00:33:51;10.90;99.90
13296;DHT22;6716;51.086;-0.302;2022-10-31T00:36:18;10.80;99.90
13296;DHT22;6716;51.086;-0.302;2022-10-31T00:38:46;10.80;99.90
13296;DHT22;6716;51.086;-0.302;2022-10-31T00:41:14;10.80;99.90
13296;DHT22;6716;51.086;-0.302;2022-10-31T00:43:41;10.80;99.90
13296;DHT22;6716;51.086;-0.302;2022-10-31T00:46:07;10.70;99.90
13296;DHT22;6716;51.086;-0.302;2022-10-31T00:48:33;10.80;99.90
13296;DHT22;6716;51.086;-0.302;2022-10-31T00:50:59;10.80;99.90
13296;DHT22;6716;51.086;-0.302;2022-10-31T00:53:25;10.70;99.90
13296;DHT22;6716;51.086;-0.302;2022-10-31T00:55:50;10.70;99.90
13296;DHT22;6716;51.086;-0.302;2022-10-31T00:58:16;10.60;99.90
13296;DHT22;6716;51.086;-0.302;2022-10-31T01:00:42;10.60;99.90
13296;DHT22;6716;51.086;-0.302;2022-10-31T01:03:08;10.60;99.90
13296;DHT22;6716;51.086;-0.302;2022-10-31T01:05:34;10.50;99.90
13296;DHT22;6716;51.086;-0.302;2022-10-31T01:08:00;10.50;99.90
13296;DHT22;6716;51.086;-0.302;2022-10-31T01:10:26;10.50;99.90
13296;DHT22;6716;51.086;-0.302;2022-10-31T01:12:52;10.50;99.90
13296;DHT22;6716;51.086;-0.302;2022-10-31T01:15:20;10.50;99.90
13296;DHT22;6716;51.086;-0.302;2022-10-31T01:17:49;10.50;99.90
13296;DHT22;6716;51.086;-0.302;2022-10-31T01:20:16;10.50;99.90
13296;DHT22;6716;51.086;-0.302;2022-10-31T01:22:42;10.50;99.90
13296;DHT22;6716;51.086;-0.302;2022-10-31T01:25:09;10.40;99.90
13296;DHT22;6716;51.086;-0.302;2022-10-31T01:27:35;10.40;99.90
13296;DHT22;6716;51.086;-0.302;2022-10-31T01:30:01;10.40;99.90
13296;DHT22;6716;51.086;-0.302;2022-10-31T01:32:27;10.40;99.90
13296;DHT22;6716;51.086;-0.302;2022-10-31T01:34:54;10.40;99.90
13296;DHT22;6716;51.086;-0.302;2022-10-31T01:37:21;10.30;99.90
13296;DHT22;6716;51.086;-0.302;2022-10-31T01:39:51;10.30;99.90
13296;DHT22;6716;51.086;-0.302;2022-10-31T01:42:21;10.30;99.90
13296;DHT22;6716;51.086;-0.302;2022-10-31T01:44:58;10.30;99.90
13296;DHT22;6716;51.086;-0.302;2022-10-31T01:47:37;10.30;99.90
13296;DHT22;6716;51.086;-0.302;2022-10-31T01:50:42;10.40;99.90
13296;DHT22;6716;51.086;-0.302;2022-10-31T01:53:10;10.40;99.90
13296;DHT22;6716;51.086;-0.302;2022-10-31T01:55:42;10.40;99.90
13296;DHT22;6716;51.086;-0.302;2022-10-31T01:58:39;10.40;99.90
13296;DHT22;6716;51.086;-0.302;2022-10-31T02:01:05;10.40;99.90
13296;DHT22;6716;51.086;-0.302;2022-10-31T02:03:31;10.40;99.90
13296;DHT22;6716;51.086;-0.302;2022-10-31T02:05:58;10.30;99.90
13296;DHT22;6716;51.086;-0.302;2022-10-31T02:08:30;10.30;99.90
13296;DHT22;6716;51.086;-0.302;2022-10-31T02:10:57;10.20;99.90
13296;DHT22;6716;51.086;-0.302;2022-10-31T02:13:25;10.20;99.90
13296;DHT22;6716;51.086;-0.302;2022-10-31T02:15:57;10.20;99.90
13296;DHT22;6716;51.086;-0.302;2022-10-31T02:18:24;10.10;99.90
13296;DHT22;6716;51.086;-0.302;2022-10-31T02:24:17;10.10;99.90
13296;DHT22;6716;51.086;-0.302;2022-10-31T02:27:05;9.90;99.90
13296;DHT22;6716;51.086;-0.302;2022-10-31T02:29:57;9.90;99.90
13296;DHT22;6716;51.086;-0.302;2022-10-31T02:37:48;9.80;99.90
13296;DHT22;6716;51.086;-0.302;2022-10-31T02:40:25;9.90;99.90
13296;DHT22;6716;51.086;-0.302;2022-10-31T02:45:39;9.90;99.90
13296;DHT22;6716;51.086;-0.302;2022-10-31T02:48:10;9.80;99.90
13296;DHT22;6716;51.086;-0.302;2022-10-31T02:50:42;9.80;99.90
13296;DHT22;6716;51.086;-0.302;2022-10-31T02:53:14;9.90;99.90
13296;DHT22;6716;51.086;-0.302;2022-10-31T02:58:20;10.50;99.90
13296;DHT22;6716;51.086;-0.302;2022-10-31T03:12:11;10.00;99.90
13296;DHT22;6716;51.086;-0.302;2022-10-31T03:14:48;10.10;99.90
13296;DHT22;6716;51.086;-0.302;2022-10-31T03:17:35;10.20;99.90
13296;DHT22;6716;51.086;-0.302;2022-10-31T03:20:04;10.20;99.90
13296;DHT22;6716;51.086;-0.302;2022-10-31T03:22:33;10.30;99.90
13296;DHT22;6716;51.086;-0.302;2022-10-31T03:25:02;10.30;99.90
13296;DHT22;6716;51.086;-0.302;2022-10-31T03:27:31;10.30;99.90
13296;DHT22;6716;51.086;-0.302;2022-10-31T03:30:02;10.30;99.90
13296;DHT22;6716;51.086;-0.302;2022-10-31T03:32:32;10.30;99.90
13296;DHT22;6716;51.086;-0.302;2022-10-31T03:35:02;10.20;99.90
13296;DHT22;6716;51.086;-0.302;2022-10-31T03:37:33;10.30;99.90
13296;DHT22;6716;51.086;-0.302;2022-10-31T03:40:01;10.20;99.90
13296;DHT22;6716;51.086;-0.302;2022-10-31T03:42:31;10.20;99.90
13296;DHT22;6716;51.086;-0.302;2022-10-31T03:45:08;10.20;99.90
13296;DHT22;6716;51.086;-0.302;2022-10-31T03:47:37;10.20;99.90
13296;DHT22;6716;51.086;-0.302;2022-10-31T03:50:06;10.10;99.90
13296;DHT22;6716;51.086;-0.302;2022-10-31T03:52:52;10.10;99.90
13296;DHT22;6716;51.086;-0.302;2022-10-31T03:55:26;10.10;99.90
13296;DHT22;6716;51.086;-0.302;2022-10-31T03:58:11;10.10;99.90
13296;DHT22;6716;51.086;-0.302;2022-10-31T04:00:41;10.00;99.90
13296;DHT22;6716;51.086;-0.302;2022-10-31T04:03:15;10.00;99.90
13296;DHT22;6716;51.086;-0.302;2022-10-31T04:05:45;9.90;99.90
13296;DHT22;6716;51.086;-0.302;2022-10-31T04:08:18;9.90;99.90
13296;DHT22;6716;51.086;-0.302;2022-10-31T04:10:48;9.90;99.90
13296;DHT22;6716;51.086;-0.302;2022-10-31T04:13:23;10.10;99.90
13296;DHT22;6716;51.086;-0.302;2022-10-31T04:15:52;9.90;99.90
13296;DHT22;6716;51.086;-0.302;2022-10-31T04:18:19;9.80;99.90
13296;DHT22;6716;51.086;-0.302;2022-10-31T04:20:47;9.80;99.90
13296;DHT22;6716;51.086;-0.302;2022-10-31T04:23:25;9.80;99.90
13296;DHT22;6716;51.086;-0.302;2022-10-31T04:25:51;9.70;99.90
13296;DHT22;6716;51.086;-0.302;2022-10-31T04:28:18;9.60;99.90
13296;DHT22;6716;51.086;-0.302;2022-10-31T04:30:44;9.60;99.90
13296;DHT22;6716;51.086;-0.302;2022-10-31T04:33:10;9.50;99.90
13296;DHT22;6716;51.086;-0.302;2022-10-31T04:35:36;9.50;99.90
13296;DHT22;6716;51.086;-0.302;2022-10-31T04:38:02;9.40;99.90
13296;DHT22;6716;51.086;-0.302;2022-10-31T04:40:27;9.40;99.90
13296;DHT22;6716;51.086;-0.302;2022-10-31T04:42:54;9.50;99.90
13296;DHT22;6716;51.086;-0.302;2022-10-31T04:45:22;9.60;99.90
13296;DHT22;6716;51.086;-0.302;2022-10-31T04:47:48;9.50;99.90
13296;DHT22;6716;51.086;-0.302;2022-10-31T04:50:14;9.50;99.90
13296;DHT22;6716;51.086;-0.302;2022-10-31T04:52:44;9.50;99.90
13296;DHT22;6716;51.086;-0.302;2022-10-31T04:55:11;9.50;99.90
13296;DHT22;6716;51.086;-0.302;2022-10-31T04:57:46;9.40;99.90
13296;DHT22;6716;51.086;-0.302;2022-10-31T05:00:14;9.30;99.90
13296;DHT22;6716;51.086;-0.302;2022-10-31T05:02:44;9.30;99.90
13296;DHT22;6716;51.086;-0.302;2022-10-31T05:05:11;9.30;99.90
13296;DHT22;6716;51.086;-0.302;2022-10-31T05:07:45;9.20;99.90
13296;DHT22;6716;51.086;-0.302;2022-10-31T05:10:13;10.20;99.90
13296;DHT22;6716;51.086;-0.302;2022-10-31T05:12:52;9.10;99.90
13296;DHT22;6716;51.086;-0.302;2022-10-31T05:15:20;9.20;99.90
13296;DHT22;6716;51.086;-0.302;2022-10-31T05:17:49;9.10;99.90
13296;DHT22;6716;51.086;-0.302;2022-10-31T05:20:17;9.10;99.90
13296;DHT22;6716;51.086;-0.302;2022-10-31T05:22:48;9.10;99.90
13296;DHT22;6716;51.086;-0.302;2022-10-31T05:25:19;9.10;99.90
13296;DHT22;6716;51.086;-0.302;2022-10-31T05:27:47;9.10;99.90
13296;DHT22;6716;51.086;-0.302;2022-10-31T05:30:18;9.10;99.90
13296;DHT22;6716;51.086;-0.302;2022-10-31T05:32:45;9.00;99.90
13296;DHT22;6716;51.086;-0.302;2022-10-31T05:35:16;9.00;99.90
13296;DHT22;6716;51.086;-0.302;2022-10-31T05:37:42;9.00;99.90
13296;DHT22;6716;51.086;-0.302;2022-10-31T05:40:11;8.90;99.90
13296;DHT22;6716;51.086;-0.302;2022-10-31T05:42:38;8.90;99.90
13296;DHT22;6716;51.086;-0.302;2022-10-31T05:45:09;8.90;99.90
13296;DHT22;6716;51.086;-0.302;2022-10-31T05:47:36;8.90;99.90
13296;DHT22;6716;51.086;-0.302;2022-10-31T05:50:02;8.90;99.90
13296;DHT22;6716;51.086;-0.302;2022-10-31T05:52:28;8.90;99.90
13296;DHT22;6716;51.086;-0.302;2022-10-31T05:54:54;8.90;99.90
13296;DHT22;6716;51.086;-0.302;2022-10-31T05:57:20;8.90;99.90
13296;DHT22;6716;51.086;-0.302;2022-10-31T05:59:46;8.90;99.90
13296;DHT22;6716;51.086;-0.302;2022-10-31T06:02:12;8.90;99.90
13296;DHT22;6716;51.086;-0.302;2022-10-31T06:04:38;9.00;99.90
13296;DHT22;6716;51.086;-0.302;2022-10-31T06:07:03;8.30;99.90
13296;DHT22;6716;51.086;-0.302;2022-10-31T06:09:29;9.10;99.90
13296;DHT22;6716;51.086;-0.302;2022-10-31T06:11:55;9.20;99.90
13296;DHT22;6716;51.086;-0.302;2022-10-31T06:14:21;9.20;99.90
13296;DHT22;6716;51.086;-0.302;2022-10-31T06:16:47;9.20;99.90
13296;DHT22;6716;51.086;-0.302;2022-10-31T06:19:13;9.40;99.90
13296;DHT22;6716;51.086;-0.302;2022-10-31T06:21:39;9.40;99.90
13296;DHT22;6716;51.086;-0.302;2022-10-31T06:24:05;9.50;99.90
13296;DHT22;6716;51.086;-0.302;2022-10-31T06:26:31;9.50;99.90
13296;DHT22;6716;51.086;-0.302;2022-10-31T06:28:56;9.50;99.90
13296;DHT22;6716;51.086;-0.302;2022-10-31T06:31:22;9.50;99.90
13296;DHT22;6716;51.086;-0.302;2022-10-31T06:33:48;9.50;99.90
13296;DHT22;6716;51.086;-0.302;2022-10-31T06:36:14;9.50;99.90
13296;DHT22;6716;51.086;-0.302;2022-10-31T06:38:40;7.80;99.90
13296;DHT22;6716;51.086;-0.302;2022-10-31T06:41:08;9.50;99.90
13296;DHT22;6716;51.086;-0.302;2022-10-31T06:43:34;9.40;99.90
13296;DHT22;6716;51.086;-0.302;2022-10-31T06:46:04;9.40;99.90
13296;DHT22;6716;51.086;-0.302;2022-10-31T06:48:31;9.50;99.90
13296;DHT22;6716;51.086;-0.302;2022-10-31T06:51:00;9.60;99.90
13296;DHT22;6716;51.086;-0.302;2022-10-31T06:53:27;9.50;99.90
13296;DHT22;6716;51.086;-0.302;2022-10-31T06:55:56;9.60;99.90
13296;DHT22;6716;51.086;-0.302;2022-10-31T06:58:22;9.60;99.90
13296;DHT22;6716;51.086;-0.302;2022-10-31T07:00:48;9.50;99.90
13296;DHT22;6716;51.086;-0.302;2022-10-31T07:03:14;9.60;99.90
13296;DHT22;6716;51.086;-0.302;2022-10-31T07:05:41;9.70;99.90
13296;DHT22;6716;51.086;-0.302;2022-10-31T07:08:11;9.80;99.90
13296;DHT22;6716;51.086;-0.302;2022-10-31T07:10:38;9.80;99.90
13296;DHT22;6716;51.086;-0.302;2022-10-31T07:13:08;9.90;99.90
13296;DHT22;6716;51.086;-0.302;2022-10-31T07:15:37;9.80;99.90
13296;DHT22;6716;51.086;-0.302;2022-10-31T07:18:05;9.90;99.90
13296;DHT22;6716;51.086;-0.302;2022-10-31T07:20:31;9.90;99.90
13296;DHT22;6716;51.086;-0.302;2022-10-31T07:22:58;10.00;99.90
13296;DHT22;6716;51.086;-0.302;2022-10-31T07:25:24;10.00;99.90
13296;DHT22;6716;51.086;-0.302;2022-10-31T07:27:50;10.10;99.90
13296;DHT22;6716;51.086;-0.302;2022-10-31T07:30:16;10.20;99.90
13296;DHT22;6716;51.086;-0.302;2022-10-31T07:32:48;10.30;99.90
13296;DHT22;6716;51.086;-0.302;2022-10-31T07:35:22;10.30;99.90
13296;DHT22;6716;51.086;-0.302;2022-10-31T07:37:49;10.30;99.90
13296;DHT22;6716;51.086;-0.302;2022-10-31T07:40:15;10.20;99.90
13296;DHT22;6716;51.086;-0.302;2022-10-31T07:42:43;10.20;99.90
13296;DHT22;6716;51.086;-0.302;2022-10-31T07:45:13;10.20;99.90
13296;DHT22;6716;51.086;-0.302;2022-10-31T07:47:52;10.10;99.90
13296;DHT22;6716;51.086;-0.302;2022-10-31T07:50:30;10.00;99.90
13296;DHT22;6716;51.086;-0.302;2022-10-31T07:53:05;10.10;99.90
13296;DHT22;6716;51.086;-0.302;2022-10-31T07:55:32;10.00;99.90
13296;DHT22;6716;51.086;-0.302;2022-10-31T07:58:12;10.10;99.90
13296;DHT22;6716;51.086;-0.302;2022-10-31T08:00:40;10.20;99.90
13296;DHT22;6716;51.086;-0.302;2022-10-31T08:03:11;10.30;99.90
13296;DHT22;6716;51.086;-0.302;2022-10-31T08:05:37;10.20;99.90
13296;DHT22;6716;51.086;-0.302;2022-10-31T08:08:04;10.20;99.90
13296;DHT22;6716;51.086;-0.302;2022-10-31T08:10:31;10.10;99.90
13296;DHT22;6716;51.086;-0.302;2022-10-31T08:15:23;10.10;99.90
13296;DHT22;6716;51.086;-0.302;2022-10-31T08:17:49;10.10;99.90
13296;DHT22;6716;51.086;-0.302;2022-10-31T08:20:14;10.20;99.90
13296;DHT22;6716;51.086;-0.302;2022-10-31T08:22:43;10.10;99.90
13296;DHT22;6716;51.086;-0.302;2022-10-31T08:25:09;10.10;99.90
13296;DHT22;6716;51.086;-0.302;2022-10-31T08:27:35;10.10;99.90
13296;DHT22;6716;51.086;-0.302;2022-10-31T08:30:00;10.10;99.90
13296;DHT22;6716;51.086;-0.302;2022-10-31T08:32:26;10.30;99.90
13296;DHT22;6716;51.086;-0.302;2022-10-31T08:34:52;10.40;99.90
13296;DHT22;6716;51.086;-0.302;2022-10-31T08:37:18;10.50;99.90
13296;DHT22;6716;51.086;-0.302;2022-10-31T08:39:48;10.50;99.90
13296;DHT22;6716;51.086;-0.302;2022-10-31T08:42:16;10.40;99.90
13296;DHT22;6716;51.086;-0.302;2022-10-31T08:44:45;10.50;99.90
13296;DHT22;6716;51.086;-0.302;2022-10-31T08:47:10;10.50;99.90
13296;DHT22;6716;51.086;-0.302;2022-10-31T08:49:36;10.60;99.90
13296;DHT22;6716;51.086;-0.302;2022-10-31T08:52:02;10.60;99.90
13296;DHT22;6716;51.086;-0.302;2022-10-31T08:54:28;10.60;99.90
13296;DHT22;6716;51.086;-0.302;2022-10-31T08:56:55;10.60;99.90
13296;DHT22;6716;51.086;-0.302;2022-10-31T08:59:21;10.70;99.90
13296;DHT22;6716;51.086;-0.302;2022-10-31T09:01:49;10.60;99.90
13296;DHT22;6716;51.086;-0.302;2022-10-31T09:04:15;10.70;99.90
13296;DHT22;6716;51.086;-0.302;2022-10-31T09:06:41;10.90;99.90
13296;DHT22;6716;51.086;-0.302;2022-10-31T09:09:07;10.90;99.90
13296;DHT22;6716;51.086;-0.302;2022-10-31T09:11:33;11.00;99.90
13296;DHT22;6716;51.086;-0.302;2022-10-31T09:13:59;11.00;99.90
13296;DHT22;6716;51.086;-0.302;2022-10-31T09:16:24;11.10;99.90
13296;DHT22;6716;51.086;-0.302;2022-10-31T09:18:50;11.10;99.90
13296;DHT22;6716;51.086;-0.302;2022-10-31T09:21:16;11.10;99.90
13296;DHT22;6716;51.086;-0.302;2022-10-31T09:23:42;11.10;99.90
13296;DHT22;6716;51.086;-0.302;2022-10-31T09:26:08;11.10;99.90
13296;DHT22;6716;51.086;-0.302;2022-10-31T09:28:34;11.10;99.90
13296;DHT22;6716;51.086;-0.302;2022-10-31T09:31:00;11.10;99.90
13296;DHT22;6716;51.086;-0.302;2022-10-31T09:33:26;11.20;99.90
13296;DHT22;6716;51.086;-0.302;2022-10-31T09:35:57;11.20;99.90
13296;DHT22;6716;51.086;-0.302;2022-10-31T09:38:23;11.40;99.90
13296;DHT22;6716;51.086;-0.302;2022-10-31T09:46:34;11.50;99.90
13296;DHT22;6716;51.086;-0.302;2022-10-31T09:52:34;11.50;99.90
13296;DHT22;6716;51.086;-0.302;2022-10-31T09:55:05;11.50;99.90
13296;DHT22;6716;51.086;-0.302;2022-10-31T09:57:36;11.50;99.90
13296;DHT22;6716;51.086;-0.302;2022-10-31T10:00:28;11.50;99.90
13296;DHT22;6716;51.086;-0.302;2022-10-31T10:06:11;11.60;99.90
13296;DHT22;6716;51.086;-0.302;2022-10-31T10:08:39;11.70;99.90
13296;DHT22;6716;51.086;-0.302;2022-10-31T10:11:14;11.80;99.90
13296;DHT22;6716;51.086;-0.302;2022-10-31T10:13:53;11.90;99.90
13296;DHT22;6716;51.086;-0.302;2022-10-31T10:16:38;12.10;99.90
13296;DHT22;6716;51.086;-0.302;2022-10-31T10:19:15;12.40;99.90
13296;DHT22;6716;51.086;-0.302;2022-10-31T10:30:08;12.50;99.90
13296;DHT22;6716;51.086;-0.302;2022-10-31T10:32:52;13.00;99.90
13296;DHT22;6716;51.086;-0.302;2022-10-31T10:35:55;13.10;99.90
13296;DHT22;6716;51.086;-0.302;2022-10-31T10:40:47;13.40;99.90
13296;DHT22;6716;51.086;-0.302;2022-10-31T10:43:35;13.20;99.90
13296;DHT22;6716;51.086;-0.302;2022-10-31T10:46:26;13.60;99.90
13296;DHT22;6716;51.086;-0.302;2022-10-31T11:00:30;13.70;99.90
13296;DHT22;6716;51.086;-0.302;2022-10-31T11:02:57;13.80;99.90
13296;DHT22;6716;51.086;-0.302;2022-10-31T11:08:30;14.10;99.90
13296;DHT22;6716;51.086;-0.302;2022-10-31T11:13:44;14.30;99.90
13296;DHT22;6716;51.086;-0.302;2022-10-31T11:16:13;13.50;99.90
13296;DHT22;6716;51.086;-0.302;2022-10-31T11:18:42;13.50;99.90
13296;DHT22;6716;51.086;-0.302;2022-10-31T11:21:21;13.30;99.90
13296;DHT22;6716;51.086;-0.302;2022-10-31T11:23:47;11.10;99.90
13296;DHT22;6716;51.086;-0.302;2022-10-31T11:26:20;13.20;99.90
13296;DHT22;6716;51.086;-0.302;2022-10-31T11:28:56;13.60;99.90
13296;DHT22;6716;51.086;-0.302;2022-10-31T11:31:23;13.50;99.90
13296;DHT22;6716;51.086;-0.302;2022-10-31T11:33:57;13.90;99.90
13296;DHT22;6716;51.086;-0.302;2022-10-31T11:36:32;13.40;99.90
13296;DHT22;6716;51.086;-0.302;2022-10-31T11:39:00;13.30;99.90
13296;DHT22;6716;51.086;-0.302;2022-10-31T11:43:56;12.60;99.90
13296;DHT22;6716;51.086;-0.302;2022-10-31T11:48:54;13.30;99.90
13296;DHT22;6716;51.086;-0.302;2022-10-31T11:51:24;12.90;99.90
13296;DHT22;6716;51.086;-0.302;2022-10-31T11:53:52;12.60;99.90
13296;DHT22;6716;51.086;-0.302;2022-10-31T11:56:19;12.60;99.90
13296;DHT22;6716;51.086;-0.302;2022-10-31T11:59:01;12.50;99.90
13296;DHT22;6716;51.086;-0.302;2022-10-31T12:01:30;12.30;99.90
13296;DHT22;6716;51.086;-0.302;2022-10-31T12:04:10;12.20;99.90
13296;DHT22;6716;51.086;-0.302;2022-10-31T12:06:38;12.20;99.90
13296;DHT22;6716;51.086;-0.302;2022-10-31T12:21:03;12.00;99.90
13296;DHT22;6716;51.086;-0.302;2022-10-31T12:23:58;12.00;99.90
13296;DHT22;6716;51.086;-0.302;2022-10-31T12:26:30;12.00;99.90
13296;DHT22;6716;51.086;-0.302;2022-10-31T12:32:27;12.00;99.90
13296;DHT22;6716;51.086;-0.302;2022-10-31T12:37:40;12.10;99.90
13296;DHT22;6716;51.086;-0.302;2022-10-31T12:40:43;12.00;99.90
13296;DHT22;6716;51.086;-0.302;2022-10-31T12:45:54;14.00;99.90
13296;DHT22;6716;51.086;-0.302;2022-10-31T12:56:41;12.00;99.90
13296;DHT22;6716;51.086;-0.302;2022-10-31T13:01:51;12.20;99.90
13296;DHT22;6716;51.086;-0.302;2022-10-31T13:07:19;12.50;99.90
13296;DHT22;6716;51.086;-0.302;2022-10-31T13:10:17;13.40;99.90
13296;DHT22;6716;51.086;-0.302;2022-10-31T13:12:48;13.60;99.90
13296;DHT22;6716;51.086;-0.302;2022-10-31T13:15:22;13.80;99.90
13296;DHT22;6716;51.086;-0.302;2022-10-31T13:17:55;13.80;99.90
13296;DHT22;6716;51.086;-0.302;2022-10-31T13:20:29;13.20;99.90
13296;DHT22;6716;51.086;-0.302;2022-10-31T13:25:52;12.60;99.90
13296;DHT22;6716;51.086;-0.302;2022-10-31T13:31:05;12.50;99.90
13296;DHT22;6716;51.086;-0.302;2022-10-31T13:33:47;12.50;99.90
13296;DHT22;6716;51.086;-0.302;2022-10-31T13:42:25;12.40;99.90
13296;DHT22;6716;51.086;-0.302;2022-10-31T13:45:12;12.40;99.90
13296;DHT22;6716;51.086;-0.302;2022-10-31T13:47:41;13.20;99.90
13296;DHT22;6716;51.086;-0.302;2022-10-31T13:50:31;13.50;99.90
13296;DHT22;6716;51.086;-0.302;2022-10-31T13:53:18;13.40;99.90
13296;DHT22;6716;51.086;-0.302;2022-10-31T13:55:49;12.80;99.90
13296;DHT22;6716;51.086;-0.302;2022-10-31T13:58:29;11.30;99.90
13296;DHT22;6716;51.086;-0.302;2022-10-31T14:01:20;12.30;99.90
13296;DHT22;6716;51.086;-0.302;2022-10-31T14:04:17;12.30;99.90
13296;DHT22;6716;51.086;-0.302;2022-10-31T14:09:29;12.50;99.90
13296;DHT22;6716;51.086;-0.302;2022-10-31T14:11:58;12.20;99.90
13296;DHT22;6716;51.086;-0.302;2022-10-31T14:14:31;13.30;99.90
13296;DHT22;6716;51.086;-0.302;2022-10-31T14:16:58;13.60;99.90
13296;DHT22;6716;51.086;-0.302;2022-10-31T14:19:26;13.90;99.90
13296;DHT22;6716;51.086;-0.302;2022-10-31T14:21:52;14.00;99.90
13296;DHT22;6716;51.086;-0.302;2022-10-31T14:26:57;13.50;99.90
13296;DHT22;6716;51.086;-0.302;2022-10-31T14:29:31;13.20;99.90
13296;DHT22;6716;51.086;-0.302;2022-10-31T14:51:20;12.20;99.90
13296;DHT22;6716;51.086;-0.302;2022-10-31T14:53:50;12.20;99.90
13296;DHT22;6716;51.086;-0.302;2022-10-31T14:56:28;12.10;99.90
13296;DHT22;6716;51.086;-0.302;2022-10-31T14:59:09;12.10;99.90
13296;DHT22;6716;51.086;-0.302;2022-10-31T15:01:38;12.10;99.90
13296;DHT22;6716;51.086;-0.302;2022-10-31T15:04:20;12.00;99.90
13296;DHT22;6716;51.086;-0.302;2022-10-31T15:06:51;11.90;99.90
13296;DHT22;6716;51.086;-0.302;2022-10-31T15:09:28;11.70;99.90
13296;DHT22;6716;51.086;-0.302;2022-10-31T15:11:54;12.00;99.90
13296;DHT22;6716;51.086;-0.302;2022-10-31T15:14:30;12.00;99.90
13296;DHT22;6716;51.086;-0.302;2022-10-31T15:17:02;11.90;99.90
13296;DHT22;6716;51.086;-0.302;2022-10-31T15:19:32;11.80;99.90
13296;DHT22;6716;51.086;-0.302;2022-10-31T15:21:58;11.80;99.90
13296;DHT22;6716;51.086;-0.302;2022-10-31T15:24:34;11.80;99.90
13296;DHT22;6716;51.086;-0.302;2022-10-31T15:27:01;11.90;99.90
13296;DHT22;6716;51.086;-0.302;2022-10-31T15:29:27;11.80;99.90
13296;DHT22;6716;51.086;-0.302;2022-10-31T15:32:00;11.80;99.90
13296;DHT22;6716;51.086;-0.302;2022-10-31T15:37:02;11.80;99.90
13296;DHT22;6716;51.086;-0.302;2022-10-31T15:39:28;11.80;99.90
13296;DHT22;6716;51.086;-0.302;2022-10-31T15:41:58;11.80;99.90
13296;DHT22;6716;51.086;-0.302;2022-10-31T15:44:34;11.80;99.90
13296;DHT22;6716;51.086;-0.302;2022-10-31T15:47:04;11.80;99.90
13296;DHT22;6716;51.086;-0.302;2022-10-31T15:49:35;11.80;99.90
13296;DHT22;6716;51.086;-0.302;2022-10-31T15:52:27;11.80;99.90
13296;DHT22;6716;51.086;-0.302;2022-10-31T15:55:15;11.80;99.90
13296;DHT22;6716;51.086;-0.302;2022-10-31T15:58:02;10.80;99.90
13296;DHT22;6716;51.086;-0.302;2022-10-31T16:00:33;11.70;99.90
13296;DHT22;6716;51.086;-0.302;2022-10-31T16:05:47;11.70;99.90
13296;DHT22;6716;51.086;-0.302;2022-10-31T16:10:58;11.70;99.90
13296;DHT22;6716;51.086;-0.302;2022-10-31T16:13:34;11.70;99.90
13296;DHT22;6716;51.086;-0.302;2022-10-31T16:16:13;11.70;99.90
13296;DHT22;6716;51.086;-0.302;2022-10-31T16:18:40;11.60;99.90
13296;DHT22;6716;51.086;-0.302;2022-10-31T16:21:08;11.60;99.90
13296;DHT22;6716;51.086;-0.302;2022-10-31T16:23:34;11.60;99.90
13296;DHT22;6716;51.086;-0.302;2022-10-31T16:26:06;11.50;99.90
13296;DHT22;6716;51.086;-0.302;2022-10-31T16:28:35;11.60;99.90
13296;DHT22;6716;51.086;-0.302;2022-10-31T16:31:12;11.60;99.90
13296;DHT22;6716;51.086;-0.302;2022-10-31T16:33:39;10.50;99.90
13296;DHT22;6716;51.086;-0.302;2022-10-31T16:36:44;11.60;99.90
13296;DHT22;6716;51.086;-0.302;2022-10-31T16:39:10;11.60;99.90
13296;DHT22;6716;51.086;-0.302;2022-10-31T16:41:44;11.60;99.90
13296;DHT22;6716;51.086;-0.302;2022-10-31T16:44:18;11.60;99.90
13296;DHT22;6716;51.086;-0.302;2022-10-31T16:46:44;11.60;99.90
13296;DHT22;6716;51.086;-0.302;2022-10-31T16:49:11;11.50;99.90
13296;DHT22;6716;51.086;-0.302;2022-10-31T16:51:37;11.50;99.90
13296;DHT22;6716;51.086;-0.302;2022-10-31T16:54:06;11.50;99.90
13296;DHT22;6716;51.086;-0.302;2022-10-31T16:56:34;11.70;99.90
13296;DHT22;6716;51.086;-0.302;2022-10-31T16:59:06;12.60;99.90
13296;DHT22;6716;51.086;-0.302;2022-10-31T17:01:36;11.60;99.90
13296;DHT22;6716;51.086;-0.302;2022-10-31T17:04:02;11.50;99.90
13296;DHT22;6716;51.086;-0.302;2022-10-31T17:06:28;11.50;99.90
13296;DHT22;6716;51.086;-0.302;2022-10-31T17:08:54;11.50;99.90
13296;DHT22;6716;51.086;-0.302;2022-10-31T17:11:22;11.60;99.90
13296;DHT22;6716;51.086;-0.302;2022-10-31T17:13:50;11.50;99.90
13296;DHT22;6716;51.086;-0.302;2022-10-31T17:16:16;11.60;99.90
13296;DHT22;6716;51.086;-0.302;2022-10-31T17:18:42;11.60;99.90
13296;DHT22;6716;51.086;-0.302;2022-10-31T17:21:17;11.60;99.90
13296;DHT22;6716;51.086;-0.302;2022-10-31T17:23:44;11.60;99.90
13296;DHT22;6716;51.086;-0.302;2022-10-31T17:26:10;11.60;99.90
13296;DHT22;6716;51.086;-0.302;2022-10-31T17:28:36;11.60;99.90
13296;DHT22;6716;51.086;-0.302;2022-10-31T17:31:02;11.70;99.90
13296;DHT22;6716;51.086;-0.302;2022-10-31T17:33:28;11.60;99.90
13296;DHT22;6716;51.086;-0.302;2022-10-31T17:35:54;11.70;99.90
13296;DHT22;6716;51.086;-0.302;2022-10-31T17:38:20;11.50;99.90
13296;DHT22;6716;51.086;-0.302;2022-10-31T17:40:46;10.90;99.90
13296;DHT22;6716;51.086;-0.302;2022-10-31T17:43:12;11.60;99.90
13296;DHT22;6716;51.086;-0.302;2022-10-31T17:45:39;11.70;99.90
13296;DHT22;6716;51.086;-0.302;2022-10-31T17:48:06;10.40;99.90
13296;DHT22;6716;51.086;-0.302;2022-10-31T17:50:32;11.70;99.90
13296;DHT22;6716;51.086;-0.302;2022-10-31T17:52:58;11.60;99.90
13296;DHT22;6716;51.086;-0.302;2022-10-31T17:55:24;11.70;99.90
13296;DHT22;6716;51.086;-0.302;2022-10-31T17:57:50;11.60;99.90
13296;DHT22;6716;51.086;-0.302;2022-10-31T18:00:18;11.90;99.90
13296;DHT22;6716;51.086;-0.302;2022-10-31T18:02:45;11.80;99.90
13296;DHT22;6716;51.086;-0.302;2022-10-31T18:05:12;11.90;99.90
13296;DHT22;6716;51.086;-0.302;2022-10-31T18:07:37;11.80;99.90
13296;DHT22;6716;51.086;-0.302;2022-10-31T18:10:04;11.80;99.90
13296;DHT22;6716;51.086;-0.302;2022-10-31T18:12:30;11.70;99.90
13296;DHT22;6716;51.086;-0.302;2022-10-31T18:14:59;11.80;99.90
13296;DHT22;6716;51.086;-0.302;2022-10-31T18:17:25;11.00;99.90
13296;DHT22;6716;51.086;-0.302;2022-10-31T18:19:51;11.90;99.90
13296;DHT22;6716;51.086;-0.302;2022-10-31T18:22:17;11.80;99.90
13296;DHT22;6716;51.086;-0.302;2022-10-31T18:24:42;11.00;99.90
13296;DHT22;6716;51.086;-0.302;2022-10-31T18:27:08;11.80;99.90